RJA66B OJAI-OBBI
Flight info
| Callsign | RJA66B |
|---|---|
| Flight time | 1h 52m |
| Altitude | 41000 |
| Route | KULDI N318 NADEN/N0406F210 N318 LADNA |
| Aircraft | B789/H-SDE1E2E3FGHIJ2J3J4J5M1RWXY/LB1D1 |
Departure
| Time | 2026-05-05 18:35 |
|---|---|
| Airport | Queen Alia International Airport (OJAI) |
Arrival
| Time | 2026-05-05 20:27 |
|---|---|
| Airport | Bahrain International Airport (OBBI) |
| Time | Latitude | Longitude | Altitude | Speed | Heading |
|---|---|---|---|---|---|
| 2026-05-05 17:30 | 31.71958 | 35.99066 | 2418 ft | 0 kts | 171° |
| 2026-05-05 18:24 | 31.71964 | 35.99065 | 2418 ft | 2 kts | 171° |
| 2026-05-05 18:24 | 31.71981 | 35.99062 | 2418 ft | 2 kts | 171° |
| 2026-05-05 18:24 | 31.71999 | 35.99061 | 2416 ft | 3 kts | 201° |
| 2026-05-05 18:25 | 31.72014 | 35.99072 | 2415 ft | 3 kts | 239° |
| 2026-05-05 18:25 | 31.72019 | 35.99085 | 2417 ft | 3 kts | 264° |
| 2026-05-05 18:25 | 31.72020 | 35.99089 | 2417 ft | 0 kts | 270° |
| 2026-05-05 18:27 | 31.72020 | 35.99083 | 2417 ft | 2 kts | 270° |
| 2026-05-05 18:27 | 31.72020 | 35.99057 | 2416 ft | 4 kts | 270° |
| 2026-05-05 18:27 | 31.72013 | 35.99013 | 2417 ft | 7 kts | 258° |
| 2026-05-05 18:27 | 31.72002 | 35.98950 | 2418 ft | 9 kts | 256° |
| 2026-05-05 18:28 | 31.71883 | 35.98920 | 2418 ft | 11 kts | 165° |
| 2026-05-05 18:28 | 31.71852 | 35.98988 | 2418 ft | 10 kts | 89° |
| 2026-05-05 18:28 | 31.71863 | 35.99074 | 2418 ft | 11 kts | 81° |
| 2026-05-05 18:29 | 31.71876 | 35.99171 | 2418 ft | 13 kts | 81° |
| 2026-05-05 18:29 | 31.71888 | 35.99264 | 2416 ft | 14 kts | 81° |
| 2026-05-05 18:29 | 31.71905 | 35.99385 | 2418 ft | 16 kts | 81° |
| 2026-05-05 18:29 | 31.71927 | 35.99517 | 2418 ft | 17 kts | 75° |
| 2026-05-05 18:30 | 31.71943 | 35.99652 | 2418 ft | 17 kts | 77° |
| 2026-05-05 18:30 | 31.71971 | 35.99790 | 2418 ft | 18 kts | 77° |
| 2026-05-05 18:30 | 31.71996 | 35.99942 | 2418 ft | 20 kts | 85° |
| 2026-05-05 18:30 | 31.72016 | 36.00108 | 2418 ft | 21 kts | 81° |
| 2026-05-05 18:31 | 31.72039 | 36.00282 | 2418 ft | 23 kts | 81° |
| 2026-05-05 18:31 | 31.72068 | 36.00473 | 2418 ft | 25 kts | 79° |
| 2026-05-05 18:31 | 31.72098 | 36.00674 | 2418 ft | 26 kts | 80° |
| 2026-05-05 18:31 | 31.72130 | 36.00887 | 2418 ft | 27 kts | 80° |
| 2026-05-05 18:32 | 31.72163 | 36.01114 | 2416 ft | 29 kts | 76° |
| 2026-05-05 18:32 | 31.72196 | 36.01338 | 2418 ft | 27 kts | 80° |
| 2026-05-05 18:32 | 31.72227 | 36.01563 | 2418 ft | 29 kts | 79° |
| 2026-05-05 18:32 | 31.72233 | 36.01773 | 2418 ft | 19 kts | 146° |
| 2026-05-05 18:33 | 31.72114 | 36.01838 | 2419 ft | 19 kts | 165° |
| 2026-05-05 18:33 | 31.71999 | 36.01813 | 2419 ft | 17 kts | 225° |
| 2026-05-05 18:33 | 31.71969 | 36.01687 | 2420 ft | 17 kts | 260° |
| 2026-05-05 18:33 | 31.71948 | 36.01543 | 2420 ft | 19 kts | 260° |
| 2026-05-05 18:34 | 31.71923 | 36.01385 | 2420 ft | 21 kts | 260° |
| 2026-05-05 18:34 | 31.71900 | 36.01210 | 2417 ft | 24 kts | 261° |
| 2026-05-05 18:34 | 31.71845 | 36.00819 | 2415 ft | 80 kts | 261° |
| 2026-05-05 18:34 | 31.71721 | 35.99965 | 2424 ft | 130 kts | 263° |
| 2026-05-05 18:35 | 31.71552 | 35.98798 | 2592 ft | 154 kts | 263° |
| 2026-05-05 18:35 | 31.71404 | 35.97508 | 2980 ft | 167 kts | 263° |
| 2026-05-05 18:35 | 31.71216 | 35.96163 | 3648 ft | 168 kts | 263° |
| 2026-05-05 18:35 | 31.71002 | 35.94747 | 4049 ft | 184 kts | 261° |
| 2026-05-05 18:36 | 31.70769 | 35.93209 | 4478 ft | 200 kts | 262° |
| 2026-05-05 18:36 | 31.70483 | 35.91541 | 4975 ft | 217 kts | 252° |
| 2026-05-05 18:36 | 31.69521 | 35.90131 | 5568 ft | 236 kts | 212° |
| 2026-05-05 18:36 | 31.67900 | 35.89496 | 6162 ft | 257 kts | 193° |
| 2026-05-05 18:37 | 31.66067 | 35.89244 | 6784 ft | 273 kts | 188° |
| 2026-05-05 18:37 | 31.64151 | 35.89078 | 7570 ft | 278 kts | 189° |
| 2026-05-05 18:37 | 31.62214 | 35.88877 | 8426 ft | 281 kts | 191° |
| 2026-05-05 18:37 | 31.60271 | 35.88605 | 9316 ft | 282 kts | 193° |
| 2026-05-05 18:38 | 31.58338 | 35.88272 | 10143 ft | 286 kts | 195° |
| 2026-05-05 18:38 | 31.56370 | 35.87887 | 10866 ft | 289 kts | 195° |
| 2026-05-05 18:38 | 31.54380 | 35.87467 | 11601 ft | 292 kts | 195° |
| 2026-05-05 18:38 | 31.52373 | 35.87031 | 12326 ft | 296 kts | 195° |
| 2026-05-05 18:39 | 31.50290 | 35.86969 | 13056 ft | 308 kts | 173° |
| 2026-05-05 18:39 | 31.48297 | 35.87963 | 13758 ft | 322 kts | 147° |
| 2026-05-05 18:39 | 31.46796 | 35.89994 | 14170 ft | 342 kts | 117° |
| 2026-05-05 18:39 | 31.45986 | 35.92677 | 14496 ft | 359 kts | 108° |
| 2026-05-05 18:40 | 31.45298 | 35.95512 | 14748 ft | 375 kts | 106° |
| 2026-05-05 18:40 | 31.44611 | 35.98514 | 15088 ft | 387 kts | 106° |
| 2026-05-05 18:40 | 31.43919 | 36.01584 | 15652 ft | 392 kts | 106° |
| 2026-05-05 18:40 | 31.43212 | 36.04675 | 16262 ft | 394 kts | 107° |
| 2026-05-05 18:41 | 31.42485 | 36.07781 | 16870 ft | 397 kts | 107° |
| 2026-05-05 18:41 | 31.41738 | 36.10909 | 17465 ft | 401 kts | 107° |
| 2026-05-05 18:41 | 31.40976 | 36.14062 | 18081 ft | 404 kts | 107° |
| 2026-05-05 18:41 | 31.40207 | 36.17232 | 18634 ft | 408 kts | 108° |
| 2026-05-05 18:42 | 31.39426 | 36.20447 | 19137 ft | 412 kts | 108° |
| 2026-05-05 18:42 | 31.38645 | 36.23646 | 19626 ft | 418 kts | 108° |
| 2026-05-05 18:42 | 31.37841 | 36.26938 | 20119 ft | 423 kts | 108° |
| 2026-05-05 18:42 | 31.37031 | 36.30272 | 20609 ft | 428 kts | 108° |
| 2026-05-05 18:43 | 31.36213 | 36.33643 | 21085 ft | 433 kts | 108° |
| 2026-05-05 18:43 | 31.35386 | 36.37051 | 21545 ft | 438 kts | 108° |
| 2026-05-05 18:43 | 31.34544 | 36.40501 | 22014 ft | 443 kts | 109° |
| 2026-05-05 18:43 | 31.33691 | 36.43983 | 22471 ft | 448 kts | 109° |
| 2026-05-05 18:44 | 31.32828 | 36.47500 | 22909 ft | 453 kts | 109° |
| 2026-05-05 18:44 | 31.31956 | 36.51048 | 23347 ft | 457 kts | 109° |
| 2026-05-05 18:44 | 31.31265 | 36.54664 | 23750 ft | 465 kts | 100° |
| 2026-05-05 18:44 | 31.30961 | 36.58452 | 24112 ft | 470 kts | 96° |
| 2026-05-05 18:45 | 31.30697 | 36.62272 | 24478 ft | 474 kts | 97° |
| 2026-05-05 18:45 | 31.30423 | 36.66120 | 24842 ft | 477 kts | 97° |
| 2026-05-05 18:45 | 31.30139 | 36.70005 | 25207 ft | 480 kts | 97° |
| 2026-05-05 18:45 | 31.29848 | 36.73908 | 25568 ft | 484 kts | 97° |
| 2026-05-05 18:46 | 31.29552 | 36.77836 | 25912 ft | 487 kts | 97° |
| 2026-05-05 18:46 | 31.29253 | 36.81794 | 26263 ft | 490 kts | 97° |
| 2026-05-05 18:46 | 31.28955 | 36.85774 | 26606 ft | 493 kts | 97° |
| 2026-05-05 18:46 | 31.28663 | 36.89717 | 26940 ft | 496 kts | 98° |
| 2026-05-05 18:47 | 31.28361 | 36.93748 | 27273 ft | 499 kts | 98° |
| 2026-05-05 18:47 | 31.28058 | 36.97798 | 27613 ft | 502 kts | 98° |
| 2026-05-05 18:47 | 31.27750 | 37.01875 | 27950 ft | 505 kts | 98° |
| 2026-05-05 18:47 | 31.27439 | 37.05970 | 28287 ft | 507 kts | 98° |
| 2026-05-05 18:48 | 31.27123 | 37.10088 | 28612 ft | 510 kts | 98° |
| 2026-05-05 18:48 | 31.26803 | 37.14228 | 28940 ft | 513 kts | 98° |
| 2026-05-05 18:48 | 31.26479 | 37.18383 | 29262 ft | 516 kts | 98° |
| 2026-05-05 18:48 | 31.26098 | 37.22507 | 29571 ft | 516 kts | 103° |
| 2026-05-05 18:49 | 31.25311 | 37.26579 | 29884 ft | 513 kts | 112° |
| 2026-05-05 18:49 | 31.24150 | 37.30519 | 30178 ft | 513 kts | 115° |
| 2026-05-05 18:49 | 31.22946 | 37.34458 | 30430 ft | 516 kts | 115° |
| 2026-05-05 18:49 | 31.21741 | 37.38411 | 30690 ft | 518 kts | 115° |
| 2026-05-05 18:50 | 31.20543 | 37.42373 | 31034 ft | 518 kts | 115° |
| 2026-05-05 18:50 | 31.19350 | 37.46339 | 31425 ft | 517 kts | 115° |
| 2026-05-05 18:50 | 31.18162 | 37.50294 | 31801 ft | 516 kts | 115° |
| 2026-05-05 18:50 | 31.16968 | 37.54243 | 32163 ft | 515 kts | 115° |
| 2026-05-05 18:51 | 31.15785 | 37.58131 | 32538 ft | 515 kts | 115° |
| 2026-05-05 18:51 | 31.14585 | 37.62061 | 32917 ft | 514 kts | 115° |
| 2026-05-05 18:51 | 31.13388 | 37.65994 | 33297 ft | 514 kts | 115° |
| 2026-05-05 18:51 | 31.12196 | 37.69918 | 33682 ft | 513 kts | 115° |
| 2026-05-05 18:52 | 31.11006 | 37.73843 | 34065 ft | 513 kts | 115° |
| 2026-05-05 18:52 | 31.09814 | 37.77762 | 34399 ft | 512 kts | 116° |
| 2026-05-05 18:52 | 31.08621 | 37.81669 | 34726 ft | 511 kts | 116° |
| 2026-05-05 18:52 | 31.07426 | 37.85577 | 35039 ft | 511 kts | 116° |
| 2026-05-05 18:53 | 31.06235 | 37.89470 | 35345 ft | 510 kts | 116° |
| 2026-05-05 18:53 | 31.05044 | 37.93367 | 35649 ft | 509 kts | 116° |
| 2026-05-05 18:53 | 31.03870 | 37.97199 | 35948 ft | 508 kts | 117° |
| 2026-05-05 18:53 | 31.02679 | 38.01073 | 36245 ft | 507 kts | 117° |
| 2026-05-05 18:54 | 31.01488 | 38.04939 | 36533 ft | 506 kts | 117° |
| 2026-05-05 18:54 | 31.00298 | 38.08802 | 36812 ft | 506 kts | 117° |
| 2026-05-05 18:54 | 30.99108 | 38.12657 | 36997 ft | 505 kts | 117° |
| 2026-05-05 18:54 | 30.97915 | 38.16516 | 37036 ft | 507 kts | 117° |
| 2026-05-05 18:55 | 30.95532 | 38.24247 | 37032 ft | 507 kts | 117° |
| 2026-05-05 18:55 | 30.93164 | 38.31913 | 37034 ft | 506 kts | 117° |
| 2026-05-05 18:56 | 30.90772 | 38.39603 | 37032 ft | 505 kts | 117° |
| 2026-05-05 18:56 | 30.88382 | 38.47279 | 37030 ft | 504 kts | 118° |
| 2026-05-05 18:57 | 30.85981 | 38.54952 | 37035 ft | 504 kts | 118° |
| 2026-05-05 18:57 | 30.83581 | 38.62612 | 37033 ft | 504 kts | 118° |
| 2026-05-05 18:58 | 30.81200 | 38.70224 | 37031 ft | 504 kts | 118° |
| 2026-05-05 18:58 | 30.78730 | 38.77828 | 37030 ft | 497 kts | 124° |
| 2026-05-05 18:59 | 30.75670 | 38.84996 | 37034 ft | 495 kts | 125° |
| 2026-05-05 18:59 | 30.72596 | 38.92151 | 37046 ft | 494 kts | 125° |
| 2026-05-05 19:00 | 30.69547 | 38.99252 | 37049 ft | 494 kts | 125° |
| 2026-05-05 19:00 | 30.66480 | 39.06392 | 37048 ft | 493 kts | 126° |
| 2026-05-05 19:01 | 30.63415 | 39.13517 | 37046 ft | 493 kts | 126° |
| 2026-05-05 19:01 | 30.60343 | 39.20622 | 37042 ft | 493 kts | 126° |
| 2026-05-05 19:02 | 30.57285 | 39.27681 | 37043 ft | 493 kts | 126° |
| 2026-05-05 19:02 | 30.54201 | 39.34797 | 37042 ft | 493 kts | 126° |
| 2026-05-05 19:03 | 30.51111 | 39.41905 | 37042 ft | 494 kts | 126° |
| 2026-05-05 19:03 | 30.48017 | 39.49020 | 37059 ft | 495 kts | 126° |
| 2026-05-05 19:04 | 30.44938 | 39.56095 | 37062 ft | 495 kts | 126° |
| 2026-05-05 19:04 | 30.41817 | 39.63203 | 37059 ft | 493 kts | 129° |
| 2026-05-05 19:05 | 30.39992 | 39.66505 | 37056 ft | 481 kts | 137° |
| 2026-05-05 19:05 | 30.37992 | 39.69605 | 37059 ft | 481 kts | 137° |
| 2026-05-05 19:05 | 30.33989 | 39.75821 | 37063 ft | 481 kts | 137° |
| 2026-05-05 19:06 | 30.30017 | 39.81993 | 37062 ft | 481 kts | 137° |
| 2026-05-05 19:06 | 30.26013 | 39.88203 | 37067 ft | 481 kts | 137° |
| 2026-05-05 19:07 | 30.22003 | 39.94407 | 37058 ft | 481 kts | 137° |
| 2026-05-05 19:07 | 30.17996 | 40.00603 | 37060 ft | 481 kts | 137° |
| 2026-05-05 19:08 | 30.14017 | 40.06749 | 37053 ft | 481 kts | 138° |
| 2026-05-05 19:08 | 30.10004 | 40.12936 | 37057 ft | 481 kts | 138° |
| 2026-05-05 19:09 | 30.05998 | 40.19119 | 37059 ft | 481 kts | 138° |
| 2026-05-05 19:09 | 30.01977 | 40.25295 | 37051 ft | 481 kts | 138° |
| 2026-05-05 19:10 | 29.97978 | 40.31419 | 37052 ft | 481 kts | 138° |
| 2026-05-05 19:10 | 29.93957 | 40.37593 | 37053 ft | 482 kts | 138° |
| 2026-05-05 19:11 | 29.89932 | 40.43774 | 37055 ft | 482 kts | 138° |
| 2026-05-05 19:11 | 29.85904 | 40.49933 | 37045 ft | 481 kts | 138° |
| 2026-05-05 19:12 | 29.81889 | 40.56043 | 37045 ft | 482 kts | 138° |
| 2026-05-05 19:12 | 29.77841 | 40.62201 | 37044 ft | 482 kts | 139° |
| 2026-05-05 19:13 | 29.74115 | 40.68735 | 37040 ft | 492 kts | 133° |
| 2026-05-05 19:13 | 29.70525 | 40.75440 | 37040 ft | 492 kts | 133° |
| 2026-05-05 19:14 | 29.66950 | 40.82089 | 37038 ft | 492 kts | 133° |
| 2026-05-05 19:14 | 29.63338 | 40.88768 | 37036 ft | 492 kts | 133° |
| 2026-05-05 19:15 | 29.59725 | 40.95447 | 37034 ft | 492 kts | 133° |
| 2026-05-05 19:15 | 29.56134 | 41.02075 | 37031 ft | 492 kts | 133° |
| 2026-05-05 19:16 | 29.52515 | 41.08731 | 37031 ft | 492 kts | 133° |
| 2026-05-05 19:16 | 29.48898 | 41.15391 | 37024 ft | 491 kts | 133° |
| 2026-05-05 19:17 | 29.45280 | 41.22053 | 37031 ft | 492 kts | 133° |
| 2026-05-05 19:17 | 29.41684 | 41.28655 | 37024 ft | 491 kts | 133° |
| 2026-05-05 19:18 | 29.38058 | 41.35301 | 37016 ft | 491 kts | 133° |
| 2026-05-05 19:18 | 29.34426 | 41.41936 | 37010 ft | 491 kts | 133° |
| 2026-05-05 19:19 | 29.30791 | 41.48572 | 37000 ft | 491 kts | 133° |
| 2026-05-05 19:19 | 29.27154 | 41.55195 | 36995 ft | 491 kts | 133° |
| 2026-05-05 19:20 | 29.23543 | 41.61773 | 36992 ft | 491 kts | 133° |
| 2026-05-05 19:20 | 29.19897 | 41.68392 | 36992 ft | 491 kts | 133° |
| 2026-05-05 19:21 | 29.16258 | 41.74997 | 36996 ft | 491 kts | 133° |
| 2026-05-05 19:21 | 29.12612 | 41.81608 | 36989 ft | 491 kts | 134° |
| 2026-05-05 19:22 | 29.08990 | 41.88151 | 36982 ft | 491 kts | 133° |
| 2026-05-05 19:22 | 29.05397 | 41.94637 | 36975 ft | 491 kts | 133° |
| 2026-05-05 19:23 | 29.01689 | 42.01325 | 36976 ft | 492 kts | 133° |
| 2026-05-05 19:23 | 28.98056 | 42.07873 | 36983 ft | 492 kts | 133° |
| 2026-05-05 19:24 | 28.94387 | 42.14469 | 36982 ft | 492 kts | 133° |
| 2026-05-05 19:24 | 28.90728 | 42.21035 | 36980 ft | 493 kts | 133° |
| 2026-05-05 19:25 | 28.87004 | 42.27699 | 36983 ft | 494 kts | 133° |
| 2026-05-05 19:25 | 28.83309 | 42.34311 | 36982 ft | 494 kts | 133° |
| 2026-05-05 19:26 | 28.79633 | 42.40867 | 36981 ft | 495 kts | 133° |
| 2026-05-05 19:26 | 28.75921 | 42.47482 | 36980 ft | 495 kts | 133° |
| 2026-05-05 19:27 | 28.72209 | 42.54094 | 36989 ft | 496 kts | 133° |
| 2026-05-05 19:27 | 28.68522 | 42.60650 | 36984 ft | 495 kts | 133° |
| 2026-05-05 19:28 | 28.64809 | 42.67247 | 36989 ft | 495 kts | 133° |
| 2026-05-05 19:28 | 28.61307 | 42.74060 | 36979 ft | 502 kts | 128° |
| 2026-05-05 19:29 | 28.58114 | 42.81123 | 36979 ft | 504 kts | 127° |
| 2026-05-05 19:29 | 28.55036 | 42.88011 | 36983 ft | 503 kts | 127° |
| 2026-05-05 19:30 | 28.51800 | 42.94991 | 36979 ft | 501 kts | 128° |
| 2026-05-05 19:30 | 28.48495 | 43.01947 | 36976 ft | 500 kts | 129° |
| 2026-05-05 19:31 | 28.45189 | 43.08907 | 36972 ft | 500 kts | 128° |
| 2026-05-05 19:31 | 28.41901 | 43.15879 | 36973 ft | 500 kts | 128° |
| 2026-05-05 19:32 | 28.38647 | 43.22789 | 36971 ft | 500 kts | 128° |
| 2026-05-05 19:32 | 28.35361 | 43.29745 | 36966 ft | 499 kts | 128° |
| 2026-05-05 19:33 | 28.32073 | 43.36691 | 36954 ft | 499 kts | 128° |
| 2026-05-05 19:33 | 28.28778 | 43.43621 | 36961 ft | 499 kts | 128° |
| 2026-05-05 19:34 | 28.25586 | 43.50321 | 36946 ft | 499 kts | 128° |
| 2026-05-05 19:35 | 28.20702 | 43.60557 | 36944 ft | 499 kts | 128° |
| 2026-05-05 19:35 | 28.17482 | 43.67299 | 36944 ft | 499 kts | 129° |
| 2026-05-05 19:36 | 28.14104 | 43.74286 | 36945 ft | 498 kts | 129° |
| 2026-05-05 19:36 | 28.10760 | 43.81161 | 36939 ft | 498 kts | 129° |
| 2026-05-05 19:37 | 28.07564 | 43.87730 | 36935 ft | 498 kts | 129° |
| 2026-05-05 19:37 | 28.04320 | 43.94416 | 36928 ft | 498 kts | 129° |
| 2026-05-05 19:38 | 28.00982 | 44.01284 | 36924 ft | 498 kts | 129° |
| 2026-05-05 19:38 | 27.97634 | 44.08139 | 36926 ft | 498 kts | 129° |
| 2026-05-05 19:39 | 27.94283 | 44.14997 | 36922 ft | 497 kts | 129° |
| 2026-05-05 19:39 | 27.90992 | 44.21829 | 36921 ft | 498 kts | 128° |
| 2026-05-05 19:40 | 27.87806 | 44.28520 | 36934 ft | 498 kts | 128° |
| 2026-05-05 19:40 | 27.84492 | 44.35445 | 36928 ft | 498 kts | 128° |
| 2026-05-05 19:41 | 27.81178 | 44.42315 | 36926 ft | 498 kts | 128° |
| 2026-05-05 19:41 | 27.77862 | 44.49184 | 36926 ft | 498 kts | 128° |
| 2026-05-05 19:42 | 27.74572 | 44.56000 | 36923 ft | 498 kts | 128° |
| 2026-05-05 19:42 | 27.71260 | 44.62855 | 36913 ft | 498 kts | 128° |
| 2026-05-05 19:43 | 27.67940 | 44.69706 | 36915 ft | 498 kts | 128° |
| 2026-05-05 19:43 | 27.64834 | 44.76740 | 36914 ft | 510 kts | 118° |
| 2026-05-05 19:43 | 27.63869 | 44.80627 | 36903 ft | 521 kts | 108° |
| 2026-05-05 19:44 | 27.63154 | 44.84637 | 36898 ft | 521 kts | 109° |
| 2026-05-05 19:44 | 27.61711 | 44.92598 | 36905 ft | 522 kts | 109° |
| 2026-05-05 19:45 | 27.60236 | 45.00601 | 36921 ft | 522 kts | 109° |
| 2026-05-05 19:45 | 27.58748 | 45.08612 | 36920 ft | 522 kts | 109° |
| 2026-05-05 19:46 | 27.57256 | 45.16630 | 36911 ft | 523 kts | 109° |
| 2026-05-05 19:46 | 27.55763 | 45.24658 | 36906 ft | 524 kts | 109° |
| 2026-05-05 19:47 | 27.54273 | 45.32649 | 36908 ft | 524 kts | 109° |
| 2026-05-05 19:47 | 27.52768 | 45.40686 | 36902 ft | 525 kts | 109° |
| 2026-05-05 19:48 | 27.51255 | 45.48748 | 36895 ft | 526 kts | 109° |
| 2026-05-05 19:48 | 27.49734 | 45.56807 | 36893 ft | 526 kts | 109° |
| 2026-05-05 19:49 | 27.48215 | 45.64807 | 36888 ft | 526 kts | 109° |
| 2026-05-05 19:49 | 27.46683 | 45.72859 | 36884 ft | 526 kts | 109° |
| 2026-05-05 19:50 | 27.45150 | 45.80914 | 36892 ft | 526 kts | 109° |
| 2026-05-05 19:50 | 27.43611 | 45.88970 | 36901 ft | 526 kts | 109° |
| 2026-05-05 19:51 | 27.42062 | 45.97019 | 36895 ft | 526 kts | 109° |
| 2026-05-05 19:51 | 27.40522 | 46.05005 | 36882 ft | 526 kts | 109° |
| 2026-05-05 19:52 | 27.38971 | 46.13052 | 36880 ft | 526 kts | 109° |
| 2026-05-05 19:52 | 27.37413 | 46.21096 | 36884 ft | 526 kts | 109° |
| 2026-05-05 19:53 | 27.35851 | 46.29142 | 36879 ft | 527 kts | 109° |
| 2026-05-05 19:53 | 27.34337 | 46.37149 | 36880 ft | 527 kts | 108° |
| 2026-05-05 19:54 | 27.32947 | 46.45248 | 36875 ft | 528 kts | 107° |
| 2026-05-05 19:54 | 27.31578 | 46.53361 | 36876 ft | 528 kts | 108° |
| 2026-05-05 19:55 | 27.30167 | 46.61460 | 36877 ft | 527 kts | 108° |
| 2026-05-05 19:55 | 27.28736 | 46.69479 | 36886 ft | 527 kts | 108° |
| 2026-05-05 19:56 | 27.27296 | 46.77553 | 36877 ft | 527 kts | 108° |
| 2026-05-05 19:56 | 27.25870 | 46.85623 | 36863 ft | 527 kts | 108° |
| 2026-05-05 19:57 | 27.24434 | 46.93693 | 36855 ft | 526 kts | 108° |
| 2026-05-05 19:57 | 27.22994 | 47.01698 | 36854 ft | 526 kts | 108° |
| 2026-05-05 19:58 | 27.21547 | 47.09759 | 36861 ft | 527 kts | 108° |
| 2026-05-05 19:58 | 27.20095 | 47.17819 | 36857 ft | 526 kts | 108° |
| 2026-05-05 19:59 | 27.18639 | 47.25866 | 36852 ft | 526 kts | 108° |
| 2026-05-05 19:59 | 27.17175 | 47.33904 | 36841 ft | 525 kts | 108° |
| 2026-05-05 20:00 | 27.15727 | 47.41874 | 36838 ft | 524 kts | 108° |
| 2026-05-05 20:00 | 27.14264 | 47.49890 | 36831 ft | 524 kts | 108° |
| 2026-05-05 20:01 | 27.12792 | 47.57887 | 36827 ft | 523 kts | 109° |
| 2026-05-05 20:01 | 27.11308 | 47.65875 | 36828 ft | 522 kts | 109° |
| 2026-05-05 20:02 | 27.09837 | 47.73795 | 36823 ft | 521 kts | 109° |
| 2026-05-05 20:02 | 27.08358 | 47.81758 | 36825 ft | 521 kts | 109° |
| 2026-05-05 20:03 | 27.06873 | 47.89710 | 36800 ft | 521 kts | 109° |
| 2026-05-05 20:03 | 27.05376 | 47.97651 | 36798 ft | 520 kts | 109° |
| 2026-05-05 20:04 | 27.03710 | 48.05518 | 36801 ft | 517 kts | 111° |
| 2026-05-05 20:04 | 27.01912 | 48.13267 | 36796 ft | 517 kts | 112° |
| 2026-05-05 20:05 | 27.00116 | 48.21071 | 36797 ft | 517 kts | 111° |
| 2026-05-05 20:05 | 26.98372 | 48.28876 | 36791 ft | 516 kts | 111° |
| 2026-05-05 20:06 | 26.96636 | 48.36690 | 36786 ft | 516 kts | 111° |
| 2026-05-05 20:06 | 26.94900 | 48.44434 | 36787 ft | 516 kts | 111° |
| 2026-05-05 20:07 | 26.93143 | 48.52225 | 36785 ft | 515 kts | 111° |
| 2026-05-05 20:07 | 26.91385 | 48.60011 | 36783 ft | 515 kts | 111° |
| 2026-05-05 20:08 | 26.89622 | 48.67779 | 36781 ft | 515 kts | 111° |
| 2026-05-05 20:08 | 26.87862 | 48.75551 | 36771 ft | 515 kts | 110° |
| 2026-05-05 20:09 | 26.86332 | 48.83353 | 36522 ft | 518 kts | 107° |
| 2026-05-05 20:09 | 26.85654 | 48.87319 | 35916 ft | 518 kts | 106° |
| 2026-05-05 20:09 | 26.85001 | 48.91272 | 35307 ft | 517 kts | 106° |
| 2026-05-05 20:09 | 26.84341 | 48.95222 | 34719 ft | 515 kts | 106° |
| 2026-05-05 20:10 | 26.83659 | 48.99150 | 34146 ft | 514 kts | 107° |
| 2026-05-05 20:10 | 26.82952 | 49.03070 | 33553 ft | 514 kts | 107° |
| 2026-05-05 20:10 | 26.82718 | 49.04341 | 33344 ft | 514 kts | 107° |
| 2026-05-05 20:12 | 26.77988 | 49.29842 | 29274 ft | 498 kts | 104° |
| 2026-05-05 20:12 | 26.77285 | 49.33633 | 28601 ft | 495 kts | 104° |
| 2026-05-05 20:12 | 26.76589 | 49.37388 | 27951 ft | 491 kts | 105° |
| 2026-05-05 20:12 | 26.75634 | 49.41021 | 27310 ft | 484 kts | 111° |
| 2026-05-05 20:13 | 26.74591 | 49.44533 | 26701 ft | 480 kts | 111° |
| 2026-05-05 20:13 | 26.73537 | 49.48058 | 26091 ft | 476 kts | 111° |
| 2026-05-05 20:13 | 26.72490 | 49.51552 | 25493 ft | 472 kts | 111° |
| 2026-05-05 20:13 | 26.71453 | 49.55013 | 24913 ft | 467 kts | 111° |
| 2026-05-05 20:14 | 26.70423 | 49.58443 | 24345 ft | 463 kts | 111° |
| 2026-05-05 20:14 | 26.69404 | 49.61832 | 23782 ft | 458 kts | 111° |
| 2026-05-05 20:14 | 26.68395 | 49.65192 | 23217 ft | 453 kts | 111° |
| 2026-05-05 20:14 | 26.67399 | 49.68514 | 22570 ft | 449 kts | 111° |
| 2026-05-05 20:15 | 26.66411 | 49.71811 | 21924 ft | 445 kts | 111° |
| 2026-05-05 20:15 | 26.65445 | 49.75035 | 21305 ft | 442 kts | 110° |
| 2026-05-05 20:15 | 26.64473 | 49.78277 | 20686 ft | 439 kts | 110° |
| 2026-05-05 20:15 | 26.63505 | 49.81500 | 20085 ft | 436 kts | 110° |
| 2026-05-05 20:16 | 26.62540 | 49.84705 | 19498 ft | 434 kts | 110° |
| 2026-05-05 20:16 | 26.61580 | 49.87887 | 18917 ft | 432 kts | 110° |
| 2026-05-05 20:16 | 26.60621 | 49.91059 | 18347 ft | 430 kts | 110° |
| 2026-05-05 20:16 | 26.59666 | 49.94213 | 17742 ft | 427 kts | 110° |
| 2026-05-05 20:17 | 26.58717 | 49.97349 | 17112 ft | 425 kts | 110° |
| 2026-05-05 20:17 | 26.57769 | 50.00465 | 16488 ft | 422 kts | 110° |
| 2026-05-05 20:17 | 26.56842 | 50.03510 | 15882 ft | 419 kts | 110° |
| 2026-05-05 20:17 | 26.55909 | 50.06581 | 15281 ft | 415 kts | 110° |
| 2026-05-05 20:18 | 26.54988 | 50.09612 | 14699 ft | 411 kts | 110° |
| 2026-05-05 20:18 | 26.54073 | 50.12619 | 14126 ft | 406 kts | 110° |
| 2026-05-05 20:18 | 26.53169 | 50.15589 | 13559 ft | 402 kts | 110° |
| 2026-05-05 20:18 | 26.52280 | 50.18522 | 12927 ft | 397 kts | 110° |
| 2026-05-05 20:19 | 26.51398 | 50.21431 | 12305 ft | 395 kts | 110° |
| 2026-05-05 20:19 | 26.50497 | 50.24392 | 11701 ft | 421 kts | 110° |
| 2026-05-05 20:19 | 26.49552 | 50.27490 | 11096 ft | 421 kts | 110° |
| 2026-05-05 20:19 | 26.48613 | 50.30568 | 10506 ft | 417 kts | 110° |
| 2026-05-05 20:20 | 26.47683 | 50.33617 | 9762 ft | 414 kts | 110° |
| 2026-05-05 20:20 | 26.46722 | 50.36632 | 8898 ft | 410 kts | 115° |
| 2026-05-05 20:20 | 26.45147 | 50.39223 | 8068 ft | 402 kts | 135° |
| 2026-05-05 20:20 | 26.43176 | 50.41413 | 7243 ft | 397 kts | 137° |
| 2026-05-05 20:21 | 26.41171 | 50.43511 | 6446 ft | 393 kts | 139° |
| 2026-05-05 20:21 | 26.39193 | 50.45519 | 5568 ft | 386 kts | 139° |
| 2026-05-05 20:21 | 26.37248 | 50.47478 | 4515 ft | 369 kts | 139° |
| 2026-05-05 20:21 | 26.35391 | 50.49387 | 3438 ft | 359 kts | 134° |
| 2026-05-05 20:22 | 26.33868 | 50.51584 | 2881 ft | 358 kts | 122° |
| 2026-05-05 20:22 | 26.32543 | 50.53895 | 2463 ft | 345 kts | 123° |
| 2026-05-05 20:22 | 26.31297 | 50.56053 | 2039 ft | 317 kts | 123° |
| 2026-05-05 20:22 | 26.30158 | 50.58045 | 1693 ft | 290 kts | 120° |
| 2026-05-05 20:23 | 26.29618 | 50.60007 | 1669 ft | 252 kts | 90° |
| 2026-05-05 20:23 | 26.30164 | 50.61657 | 1496 ft | 215 kts | 43° |
| 2026-05-05 20:23 | 26.31424 | 50.62282 | 1418 ft | 202 kts | 5° |
| 2026-05-05 20:23 | 26.32809 | 50.61996 | 1281 ft | 205 kts | 338° |
| 2026-05-05 20:24 | 26.33952 | 50.61131 | 1138 ft | 192 kts | 311° |
| 2026-05-05 20:24 | 26.34628 | 50.59920 | 967 ft | 179 kts | 284° |
| 2026-05-05 20:24 | 26.34659 | 50.58831 | 1071 ft | 152 kts | 249° |
| 2026-05-05 20:24 | 26.34086 | 50.57926 | 1209 ft | 139 kts | 211° |
| 2026-05-05 20:25 | 26.33219 | 50.57501 | 1302 ft | 135 kts | 188° |
| 2026-05-05 20:25 | 26.32290 | 50.57422 | 1243 ft | 134 kts | 175° |
| 2026-05-05 20:25 | 26.31379 | 50.57557 | 1132 ft | 134 kts | 163° |
| 2026-05-05 20:25 | 26.30550 | 50.58016 | 1036 ft | 134 kts | 142° |
| 2026-05-05 20:26 | 26.29891 | 50.58764 | 804 ft | 137 kts | 133° |
| 2026-05-05 20:26 | 26.29301 | 50.59567 | 526 ft | 133 kts | 124° |
| 2026-05-05 20:26 | 26.28804 | 50.60434 | 368 ft | 133 kts | 123° |
| 2026-05-05 20:26 | 26.28303 | 50.61303 | 220 ft | 131 kts | 123° |
| 2026-05-05 20:27 | 26.27792 | 50.62142 | 36 ft | 131 kts | 122° |
| 2026-05-05 20:27 | 26.27335 | 50.62940 | 18 ft | 109 kts | 122° |
| 2026-05-05 20:27 | 26.27015 | 50.63478 | 15 ft | 51 kts | 122° |
| 2026-05-05 20:27 | 26.26869 | 50.63722 | 16 ft | 26 kts | 153° |
| 2026-05-05 20:28 | 26.26757 | 50.63756 | 17 ft | 0 kts | 167° |
| 2026-05-05 20:29 | 26.26748 | 50.63758 | 17 ft | 3 kts | 167° |
| 2026-05-05 20:29 | 26.26716 | 50.63766 | 17 ft | 6 kts | 167° |
| 2026-05-05 20:29 | 26.26661 | 50.63780 | 17 ft | 10 kts | 167° |
| 2026-05-05 20:30 | 26.26591 | 50.63762 | 19 ft | 11 kts | 209° |
| 2026-05-05 20:30 | 26.26518 | 50.63708 | 18 ft | 14 kts | 214° |
| 2026-05-05 20:30 | 26.26487 | 50.63684 | 19 ft | 0 kts | 214° |